Terminal Aerodrome Forecast
Issued by NWS Sioux Falls, SD

Home | Current Version | Previous Version | Text Only | Print | Product List | Glossary Off
Versions: 1 2 3 4 5 6 7 8 9 10 11 12 13 14 15 16 17 18 19 20 21 22 23 24 25 26 27 28 29 30 31 32 33 34 35 36 37 38 39 40

000
FTUS43 KFSD 232105 AAB
TAFSUX
TAF AMD
KSUX 232105Z 2321/2418 15013G18KT P6SM VCTS SCT030 OVC045CB
     FM232200 15012G18KT P6SM SCT025 OVC045
      TEMPO 2322/2401 BKN025
     FM240100 15010KT P6SM VCSH BKN025
     FM240600 12007KT P6SM SHRA VCTS OVC025CB
     FM240800 08007KT 6SM SHRA VCTS OVC025CB
     FM241000 05007KT 4SM -SHRA OVC008
     FM241600 05010G22KT 5SM -SHRA OVC008=

USA.gov is the U.S. government's official web portal to all federal, state and local government web resources and services.